• Join FlightAware (Why Join?)
  • Login
  • US Flag 
08:21AM EDT


 

Airport Tracker/Info


-or-


 

Live Flight TrackerFlight Track Log ✈ N600TR ✈ 19-Aug-2013 ✈ KPHL - KDTW

Flight Track Log - Related Links

Times and Time Zones

All times are in EDT time to prevent confusion due to time zone crossing. See the N600TR flight status page for this flight to view local times or setup timezone preferences in your user account.

Time Position Orientation Groundspeed Altitude Reporting Facility
EDT Latitude Longitude Course Direction KTS MPH feet Rate Location/Type
12:48PM 39.8333 -75.3833 247° West 231 266 3,100  Level Philadelphia TRACON
12:49PM 39.8500 -75.4500 288° West 248 285 5,000 2,040 Climbing Philadelphia TRACON
12:50PM 39.9080 -75.7189 258° West  Level FlightAware Approximate
12:51PM 39.9001 -75.8434 270° West  Level FlightAware Approximate
12:51PM 39.8994 -75.6144 291° West 272 313 8,800  Level New York Center
12:52PM 39.9000 -75.9691 270° West  Level FlightAware Approximate
12:52PM 39.9103 -75.7017 279° West 272 313 10,400  Level New York Center
12:53PM 39.9133 -75.8264 272° West 306 352 11,100 1,320 Climbing New York Center
12:54PM 39.9142 -75.9539 271° West 337 388 13,100 1,920 Climbing New York Center
12:55PM 39.9086 -76.0806 267° West 355 409 15,000 2,040 Climbing New York Center
12:56PM 39.9358 -76.2100 285° West 369 425 17,200 1,680 Climbing New York Center
12:57PM 39.9572 -76.3336 283° West 381 438 18,400 1,740 Climbing New York Center
12:58PM 39.9758 -76.4706 280° West 381 438 20,700 1,860 Climbing New York Center
12:59PM 39.9947 -76.5967 281° West 376 433 22,200 1,380 Climbing New York Center
01:00PM 40.0047 -76.7303 276° West 371 427 23,500 1,200 Climbing New York Center
01:01PM 40.0189 -76.8617 278° West 371 427 24,600 900 Climbing New York Center
01:02PM 40.0328 -76.9931 278° West 371 427 25,400 900 Climbing New York Center
01:03PM 40.0464 -77.1300 277° West 371 427 26,400 900 Climbing New York Center
01:04PM 40.0533 -77.2689 274° West 377 434 27,200 720 Climbing New York Center
01:06PM 40.0669 -77.5744 273° West 383 441 28,800 720 Climbing Cleveland Center
01:07PM 40.0728 -77.7181 273° West 393 452 29,600 720 Climbing Cleveland Center
01:08PM 40.0806 -77.8586 274° West 398 458 30,300 780 Climbing Cleveland Center
01:09PM 40.0839 -78.0053 272° West 398 458 31,200 840 Climbing Cleveland Center
01:10PM 40.0889 -78.1433 273° West 398 458 32,000 360 Climbing Cleveland Center
01:11PM 40.0731 -78.2797 261° West 393 452 32,000  Level Cleveland Center
01:12PM 40.0486 -78.4106 256° West 388 447 32,000  Level Cleveland Center
01:13PM 40.0281 -78.5442 259° West 383 441 32,000  Level Cleveland Center
01:14PM 40.0178 -78.6800 264° West 383 441 32,000  Level Cleveland Center
01:15PM 40.0097 -78.8186 266° West 378 435 32,000  Level Cleveland Center
01:16PM 39.9992 -78.9544 264° West 378 435 32,000  Level Cleveland Center
01:17PM 39.9864 -79.0875 263° West 383 441 32,000  Level Cleveland Center
01:18PM 39.9778 -79.2258 265° West 388 447 32,000  Level Cleveland Center
01:19PM 39.9711 -79.3667 267° West 388 447 32,000  Level Cleveland Center
01:20PM 39.9808 -79.5103 275° West 388 447 32,000  Level Cleveland Center
01:21PM 40.0467 -79.6367 304° West 394 453 32,000  Level Cleveland Center
01:22PM 40.1142 -79.7606 305° West 405 466 32,000 -360 Level Cleveland Center
01:23PM 40.1858 -79.8875 306° West 428 493 31,300 -600 Descending Cleveland Center
01:24PM 40.2594 -79.9981 311° West 446 513 30,800 -600 Descending Cleveland Center
01:25PM 40.3372 -80.1200 310° West 451 519 30,200 -420 Descending Cleveland Center
01:26PM 40.4169 -80.2450 310° West 446 513 30,000 -120 Descending Cleveland Center
01:27PM 40.4942 -80.3647 310° West 446 513 30,000  Level Cleveland Center
01:28PM 40.5675 -80.4928 307° West 440 506 30,000  Level Cleveland Center
01:29PM 40.6300 -80.6214 303° West 435 501 30,000  Level Cleveland Center
01:30PM 40.7028 -80.7667 303° West 430 495 30,000  Level Cleveland Center
01:31PM 40.7714 -80.8956 305° West 430 495 30,000  Level Cleveland Center
01:32PM 40.8417 -81.0250 306° West 430 495 30,000  Level Cleveland Center
01:33PM 40.9078 -81.1544 304° West 425 489 30,000  Level Cleveland Center
01:34PM 40.9739 -81.2844 304° West 425 489 30,000  Level Cleveland Center
01:35PM 41.0439 -81.4144 306° West 425 489 30,000  Level Cleveland Center
01:36PM 41.1033 -81.5503 300° West 425 489 30,000  Level Cleveland Center
01:37PM 41.1542 -81.6725 299° West 425 489 30,000  Level Cleveland Center
01:38PM 41.2153 -81.8142 300° West 437 503 30,000 -360 Level Cleveland Center
01:39PM 41.2764 -81.9564 300° West 437 503 29,300 -1,380 Descending Cleveland Center
01:40PM 41.3389 -82.1236 297° West 444 511 27,300 -1,920 Descending Cleveland Center
01:41PM 41.4014 -82.2689 300° West 449 517 25,500 -2,400 Descending Cleveland Center
01:42PM 41.4786 -82.4042 307° West 463 533 22,600 -3,300 Descending Cleveland Center
01:43PM 41.5619 -82.5258 312° West 444 511 19,000 -3,420 Descending Cleveland Center
01:44PM 41.6350 -82.6419 310° West 438 504 15,800 -3,300 Descending Cleveland Center
01:45PM 41.7000 -82.7383 312° West 413 475 12,400 -1,920 Descending Cleveland Center
01:46PM 41.7689 -82.8356 314° West 384 442 12,000 -240 Descending Cleveland Center
01:47PM 41.8422 -82.9272 317° Northwest 366 421 12,000  Level Cleveland Center
01:48PM 41.9314 -83.0478 315° West 354 407 12,000  Level Cleveland Center
01:49PM 41.9822 -83.1083 318° Northwest 353 406 12,000  Level Cleveland Center
01:50PM 42.0492 -83.1864 319° Northwest 336 387 12,000 -360 Level Cleveland Center
01:51PM 42.1108 -83.2283 333° Northwest 272 313 11,300 -1,140 Descending Cleveland Center
01:52PM 42.1775 -83.2256 North 246 283 9,800 -1,440 Descending Cleveland Center
01:53PM 42.2539 -83.1669 30° Northeast 238 274 8,200 -1,440 Descending Cleveland Center
01:54PM 42.3114 -83.1158 33° Northeast 235 270 6,700 -1,380 Descending Cleveland Center
01:55PM 42.3675 -83.1236 354° North 226 260 5,400 -1,140 Descending Cleveland Center
01:56PM 42.3636 -83.2022 266° West 218 251 4,400 -1,260 Descending Cleveland Center
01:57PM 42.3206 -83.2594 225° Southwest 207 238 2,900 -1,260 Descending Cleveland Center
01:58PM 42.2761 -83.2914 208° Southwest 169 194 1,900 -840 Descending Cleveland Center
01:59PM 42.2419 -83.3206 212° Southwest 141 162 1,200 -720 Descending Cleveland Center